sensor_id;sensor_type;location;lat;lon;timestamp;pressure;altitude;pressure_sealevel;temperature;humidity
61035;BME280;46916;40.564;-7.958;2023-04-25T00:00:37;97545.28;;;15.80;82.45
61035;BME280;46916;40.564;-7.958;2023-04-25T00:02:37;97556.00;;;15.79;82.39
61035;BME280;46916;40.564;-7.958;2023-04-25T00:04:38;97549.38;;;15.75;82.49
61035;BME280;46916;40.564;-7.958;2023-04-25T00:06:39;97546.22;;;15.71;82.44
61035;BME280;46916;40.564;-7.958;2023-04-25T00:08:40;97546.72;;;15.67;82.47
61035;BME280;46916;40.564;-7.958;2023-04-25T00:10:41;97540.06;;;15.63;82.50
61035;BME280;46916;40.564;-7.958;2023-04-25T00:12:41;97545.34;;;15.63;82.91
61035;BME280;46916;40.564;-7.958;2023-04-25T00:14:42;97547.31;;;15.60;82.92
61035;BME280;46916;40.564;-7.958;2023-04-25T00:16:43;97545.34;;;15.63;83.09
61035;BME280;46916;40.564;-7.958;2023-04-25T00:18:44;97544.50;;;15.62;83.19
61035;BME280;46916;40.564;-7.958;2023-04-25T00:20:47;97543.69;;;15.61;83.59
61035;BME280;46916;40.564;-7.958;2023-04-25T00:22:47;97540.06;;;15.63;83.71
61035;BME280;46916;40.564;-7.958;2023-04-25T00:24:48;97529.66;;;15.61;83.72
61035;BME280;46916;40.564;-7.958;2023-04-25T00:26:49;97531.19;;;15.64;84.42
61035;BME280;46916;40.564;-7.958;2023-04-25T00:28:51;97528.84;;;15.60;84.16
61035;BME280;46916;40.564;-7.958;2023-04-25T00:30:51;97528.69;;;15.62;84.29
61035;BME280;46916;40.564;-7.958;2023-04-25T00:32:52;97528.69;;;15.62;84.00
61035;BME280;46916;40.564;-7.958;2023-04-25T00:34:54;97524.88;;;15.56;84.16
61035;BME280;46916;40.564;-7.958;2023-04-25T00:36:56;97518.78;;;15.56;84.46
61035;BME280;46916;40.564;-7.958;2023-04-25T00:38:57;97521.41;;;15.56;84.15
61035;BME280;46916;40.564;-7.958;2023-04-25T00:40:58;97515.63;;;15.52;84.49
61035;BME280;46916;40.564;-7.958;2023-04-25T00:42:58;97512.16;;;15.52;84.47
61035;BME280;46916;40.564;-7.958;2023-04-25T00:44:59;97525.19;;;15.53;84.13
61035;BME280;46916;40.564;-7.958;2023-04-25T00:47:02;97512.81;;;15.54;84.25
61035;BME280;46916;40.564;-7.958;2023-04-25T00:49:03;97512.97;;;15.52;84.46
61035;BME280;46916;40.564;-7.958;2023-04-25T00:51:04;97510.47;;;15.51;84.60
61035;BME280;46916;40.564;-7.958;2023-04-25T00:53:05;97509.31;;;15.45;84.93
61035;BME280;46916;40.564;-7.958;2023-04-25T00:55:07;97513.59;;;15.46;84.95
61035;BME280;46916;40.564;-7.958;2023-04-25T00:57:08;97513.44;;;15.48;85.04
61035;BME280;46916;40.564;-7.958;2023-04-25T00:59:09;97511.78;;;15.47;85.60
61035;BME280;46916;40.564;-7.958;2023-04-25T01:01:11;97510.13;;;15.46;85.81
61035;BME280;46916;40.564;-7.958;2023-04-25T01:03:13;97516.22;;;15.46;85.86
61035;BME280;46916;40.564;-7.958;2023-04-25T01:05:14;97503.22;;;15.45;86.07
61035;BME280;46916;40.564;-7.958;2023-04-25T01:07:14;97508.81;;;15.50;85.77
61035;BME280;46916;40.564;-7.958;2023-04-25T01:09:16;97499.56;;;15.46;85.90
61035;BME280;46916;40.564;-7.958;2023-04-25T01:11:17;97508.31;;;15.46;85.45
61035;BME280;46916;40.564;-7.958;2023-04-25T01:13:18;97504.19;;;15.44;85.62
61035;BME280;46916;40.564;-7.958;2023-04-25T01:15:18;97506.66;;;15.45;85.17
61035;BME280;46916;40.564;-7.958;2023-04-25T01:17:20;97501.19;;;15.39;85.34
61035;BME280;46916;40.564;-7.958;2023-04-25T01:19:21;97500.34;;;15.38;85.57
61035;BME280;46916;40.564;-7.958;2023-04-25T01:21:22;97503.16;;;15.36;85.53
61035;BME280;46916;40.564;-7.958;2023-04-25T01:23:23;97504.00;;;15.37;85.67
61035;BME280;46916;40.564;-7.958;2023-04-25T01:25:25;97503.34;;;15.35;85.64
61035;BME280;46916;40.564;-7.958;2023-04-25T01:27:26;97507.09;;;15.32;85.55
61035;BME280;46916;40.564;-7.958;2023-04-25T01:29:28;97501.84;;;15.32;85.92
61035;BME280;46916;40.564;-7.958;2023-04-25T01:31:29;97489.78;;;15.30;85.99
61035;BME280;46916;40.564;-7.958;2023-04-25T01:33:30;97481.19;;;15.28;85.91
61035;BME280;46916;40.564;-7.958;2023-04-25T01:35:31;97490.44;;;15.32;85.99
61035;BME280;46916;40.564;-7.958;2023-04-25T01:37:32;97490.44;;;15.32;85.75
61035;BME280;46916;40.564;-7.958;2023-04-25T01:39:33;97484.50;;;15.30;86.00
61035;BME280;46916;40.564;-7.958;2023-04-25T01:41:34;97483.84;;;15.28;85.98
61035;BME280;46916;40.564;-7.958;2023-04-25T01:43:35;97468.63;;;15.22;85.99
61035;BME280;46916;40.564;-7.958;2023-04-25T01:45:37;97472.75;;;15.24;85.88
61035;BME280;46916;40.564;-7.958;2023-04-25T01:47:39;97477.34;;;15.22;85.98
61035;BME280;46916;40.564;-7.958;2023-04-25T01:49:40;97473.91;;;15.22;86.18
61035;BME280;46916;40.564;-7.958;2023-04-25T01:51:41;97474.88;;;15.21;86.10
61035;BME280;46916;40.564;-7.958;2023-04-25T01:53:42;97475.53;;;15.15;86.12
61035;BME280;46916;40.564;-7.958;2023-04-25T01:55:43;97477.00;;;15.17;86.04
61035;BME280;46916;40.564;-7.958;2023-04-25T01:57:48;97482.81;;;15.21;85.96
61035;BME280;46916;40.564;-7.958;2023-04-25T01:59:49;97474.38;;;15.17;85.93
61035;BME280;46916;40.564;-7.958;2023-04-25T02:02:10;97473.25;;;15.20;85.68
61035;BME280;46916;40.564;-7.958;2023-04-25T02:04:11;97462.19;;;15.16;85.67
61035;BME280;46916;40.564;-7.958;2023-04-25T02:06:14;97462.19;;;15.16;85.84
61035;BME280;46916;40.564;-7.958;2023-04-25T02:08:17;97461.97;;;15.09;86.03
61035;BME280;46916;40.564;-7.958;2023-04-25T02:10:19;97466.72;;;15.06;86.29
61035;BME280;46916;40.564;-7.958;2023-04-25T02:12:36;97464.16;;;14.88;87.25
61035;BME280;46916;40.564;-7.958;2023-04-25T02:14:58;97466.75;;;14.80;87.56
61035;BME280;46916;40.564;-7.958;2023-04-25T02:17:06;97459.00;;;14.78;87.77
61035;BME280;46916;40.564;-7.958;2023-04-25T02:19:07;97462.25;;;14.72;88.16
61035;BME280;46916;40.564;-7.958;2023-04-25T02:21:08;97464.38;;;14.69;88.10
61035;BME280;46916;40.564;-7.958;2023-04-25T02:23:09;97460.78;;;14.70;88.38
61035;BME280;46916;40.564;-7.958;2023-04-25T02:25:10;97458.13;;;14.70;88.21
61035;BME280;46916;40.564;-7.958;2023-04-25T02:27:12;97465.94;;;14.79;87.92
61035;BME280;46916;40.564;-7.958;2023-04-25T02:29:12;97471.72;;;14.83;87.75
61035;BME280;46916;40.564;-7.958;2023-04-25T02:31:16;97461.47;;;14.80;88.07
61035;BME280;46916;40.564;-7.958;2023-04-25T02:33:17;97469.59;;;14.86;87.83
61035;BME280;46916;40.564;-7.958;2023-04-25T02:35:18;97476.34;;;14.89;87.22
61035;BME280;46916;40.564;-7.958;2023-04-25T02:37:20;97466.97;;;14.86;87.44
61035;BME280;46916;40.564;-7.958;2023-04-25T02:39:20;97477.69;;;14.93;87.37
61035;BME280;46916;40.564;-7.958;2023-04-25T02:41:23;97472.13;;;14.96;87.05
61035;BME280;46916;40.564;-7.958;2023-04-25T02:43:24;97471.47;;;14.94;86.99
61035;BME280;46916;40.564;-7.958;2023-04-25T02:45:26;97476.56;;;14.96;87.22
61035;BME280;46916;40.564;-7.958;2023-04-25T02:47:26;97479.88;;;14.98;87.08
61035;BME280;46916;40.564;-7.958;2023-04-25T02:49:27;97477.41;;;14.96;87.04
61035;BME280;46916;40.564;-7.958;2023-04-25T02:51:28;97482.66;;;14.96;87.26
61035;BME280;46916;40.564;-7.958;2023-04-25T02:53:28;97482.97;;;14.93;87.28
61035;BME280;46916;40.564;-7.958;2023-04-25T02:55:29;97486.25;;;14.87;87.82
61035;BME280;46916;40.564;-7.958;2023-04-25T02:57:31;97480.00;;;14.88;88.13
61035;BME280;46916;40.564;-7.958;2023-04-25T02:59:32;97481.63;;;14.89;87.55
61035;BME280;46916;40.564;-7.958;2023-04-25T03:01:33;97487.59;;;14.91;87.83
61035;BME280;46916;40.564;-7.958;2023-04-25T03:03:34;97490.38;;;14.90;87.83
61035;BME280;46916;40.564;-7.958;2023-04-25T03:05:35;97481.97;;;14.86;87.80
61035;BME280;46916;40.564;-7.958;2023-04-25T03:07:35;97491.53;;;14.87;88.46
61035;BME280;46916;40.564;-7.958;2023-04-25T03:09:36;97490.69;;;14.86;89.01
61035;BME280;46916;40.564;-7.958;2023-04-25T03:11:38;97492.50;;;14.86;88.58
61035;BME280;46916;40.564;-7.958;2023-04-25T03:13:39;97500.44;;;14.86;88.23
61035;BME280;46916;40.564;-7.958;2023-04-25T03:15:41;97496.09;;;14.85;88.09
61035;BME280;46916;40.564;-7.958;2023-04-25T03:17:42;97484.91;;;14.83;87.71
61035;BME280;46916;40.564;-7.958;2023-04-25T03:19:43;97502.38;;;14.84;87.49
61035;BME280;46916;40.564;-7.958;2023-04-25T03:21:44;97502.00;;;14.79;87.45
61035;BME280;46916;40.564;-7.958;2023-04-25T03:23:46;97505.47;;;14.79;87.94
61035;BME280;46916;40.564;-7.958;2023-04-25T03:25:47;97507.59;;;14.76;88.18
61035;BME280;46916;40.564;-7.958;2023-04-25T03:27:48;97515.19;;;14.79;88.24
61035;BME280;46916;40.564;-7.958;2023-04-25T03:29:48;97518.81;;;14.78;88.15
61035;BME280;46916;40.564;-7.958;2023-04-25T03:31:49;97516.03;;;14.79;88.16
61035;BME280;46916;40.564;-7.958;2023-04-25T03:33:50;97503.84;;;14.78;88.39
61035;BME280;46916;40.564;-7.958;2023-04-25T03:35:54;97507.13;;;14.80;88.42
61035;BME280;46916;40.564;-7.958;2023-04-25T03:37:54;97514.22;;;14.80;88.37
61035;BME280;46916;40.564;-7.958;2023-04-25T03:40:01;97517.66;;;14.80;88.30
61035;BME280;46916;40.564;-7.958;2023-04-25T03:42:22;97508.13;;;14.79;88.21
61035;BME280;46916;40.564;-7.958;2023-04-25T03:44:26;97516.03;;;14.79;88.07
61035;BME280;46916;40.564;-7.958;2023-04-25T03:46:26;97511.56;;;14.80;88.40
61035;BME280;46916;40.564;-7.958;2023-04-25T03:48:27;97512.56;;;14.79;88.29
61035;BME280;46916;40.564;-7.958;2023-04-25T03:50:28;97521.00;;;14.82;88.49
61035;BME280;46916;40.564;-7.958;2023-04-25T03:52:29;97512.88;;;14.76;88.50
61035;BME280;46916;40.564;-7.958;2023-04-25T03:54:29;97516.19;;;14.78;88.63
61035;BME280;46916;40.564;-7.958;2023-04-25T03:56:37;97518.81;;;14.78;88.62
61035;BME280;46916;40.564;-7.958;2023-04-25T03:58:48;97526.03;;;14.76;88.60
61035;BME280;46916;40.564;-7.958;2023-04-25T04:00:51;97526.41;;;14.81;88.67
61035;BME280;46916;40.564;-7.958;2023-04-25T04:02:52;97531.69;;;14.81;88.88
61035;BME280;46916;40.564;-7.958;2023-04-25T04:04:53;97526.03;;;14.76;88.86
61035;BME280;46916;40.564;-7.958;2023-04-25T04:06:54;97518.38;;;14.65;89.21
61035;BME280;46916;40.564;-7.958;2023-04-25T04:09:04;97524.88;;;14.70;89.17
61035;BME280;46916;40.564;-7.958;2023-04-25T04:11:08;97524.03;;;14.70;88.97
61035;BME280;46916;40.564;-7.958;2023-04-25T04:13:09;97528.63;;;14.68;89.15
61035;BME280;46916;40.564;-7.958;2023-04-25T04:15:10;97523.50;;;14.66;89.01
61035;BME280;46916;40.564;-7.958;2023-04-25T04:17:11;97514.78;;;14.66;89.17
61035;BME280;46916;40.564;-7.958;2023-04-25T04:19:11;97526.16;;;14.66;88.88
61035;BME280;46916;40.564;-7.958;2023-04-25T04:21:17;97505.13;;;14.56;88.94
61035;BME280;46916;40.564;-7.958;2023-04-25T04:23:19;97517.34;;;14.57;88.65
61035;BME280;46916;40.564;-7.958;2023-04-25T04:25:21;97517.28;;;14.49;88.84
61035;BME280;46916;40.564;-7.958;2023-04-25T04:27:42;97514.84;;;14.38;89.40
61035;BME280;46916;40.564;-7.958;2023-04-25T04:30:09;97519.94;;;14.40;89.67
61035;BME280;46916;40.564;-7.958;2023-04-25T04:32:26;97518.16;;;14.40;89.49
61035;BME280;46916;40.564;-7.958;2023-04-25T04:34:28;97530.38;;;14.41;89.52
61035;BME280;46916;40.564;-7.958;2023-04-25T04:36:29;97524.41;;;14.39;89.78
61035;BME280;46916;40.564;-7.958;2023-04-25T04:38:31;97531.63;;;14.37;89.74
61035;BME280;46916;40.564;-7.958;2023-04-25T04:40:35;97525.38;;;14.38;89.77
61035;BME280;46916;40.564;-7.958;2023-04-25T04:42:49;97532.47;;;14.37;89.87
61035;BME280;46916;40.564;-7.958;2023-04-25T04:45:04;97529.97;;;14.36;89.81
61035;BME280;46916;40.564;-7.958;2023-04-25T04:47:19;97529.13;;;14.35;90.43
61035;BME280;46916;40.564;-7.958;2023-04-25T04:49:46;97539.38;;;14.38;90.32
61035;BME280;46916;40.564;-7.958;2023-04-25T04:52:03;97532.31;;;14.39;90.17
61035;BME280;46916;40.564;-7.958;2023-04-25T04:54:26;97528.31;;;14.35;90.88
61035;BME280;46916;40.564;-7.958;2023-04-25T04:56:46;97538.84;;;14.35;90.32
61035;BME280;46916;40.564;-7.958;2023-04-25T04:59:00;97533.06;;;14.31;90.01
61035;BME280;46916;40.564;-7.958;2023-04-25T05:01:37;97535.31;;;14.26;90.21
61035;BME280;46916;40.564;-7.958;2023-04-25T05:03:56;97536.97;;;14.27;90.34
61035;BME280;46916;40.564;-7.958;2023-04-25T05:06:29;97538.19;;;14.33;90.46
61035;BME280;46916;40.564;-7.958;2023-04-25T05:08:57;97538.19;;;14.33;90.31
61035;BME280;46916;40.564;-7.958;2023-04-25T05:11:12;97536.22;;;14.35;90.12
61035;BME280;46916;40.564;-7.958;2023-04-25T05:13:42;97534.28;;;14.37;90.20
61035;BME280;46916;40.564;-7.958;2023-04-25T05:15:53;97519.44;;;14.36;90.36
61035;BME280;46916;40.564;-7.958;2023-04-25T05:18:16;97524.41;;;14.39;89.93
61035;BME280;46916;40.564;-7.958;2023-04-25T05:20:41;97530.38;;;14.41;89.88
61035;BME280;46916;40.564;-7.958;2023-04-25T05:22:59;97527.72;;;14.41;89.83
61035;BME280;46916;40.564;-7.958;2023-04-25T05:25:15;97523.88;;;14.35;90.11
61035;BME280;46916;40.564;-7.958;2023-04-25T05:27:41;97531.94;;;14.34;90.65
61035;BME280;46916;40.564;-7.958;2023-04-25T05:29:54;97532.59;;;14.36;90.57
61035;BME280;46916;40.564;-7.958;2023-04-25T05:32:02;97532.75;;;14.34;90.54
61035;BME280;46916;40.564;-7.958;2023-04-25T05:34:03;97533.28;;;14.38;90.42
61035;BME280;46916;40.564;-7.958;2023-04-25T05:36:24;97529.13;;;14.35;90.68
61035;BME280;46916;40.564;-7.958;2023-04-25T05:38:26;97539.38;;;14.38;90.46
61035;BME280;46916;40.564;-7.958;2023-04-25T05:40:50;97539.38;;;14.38;89.71
61035;BME280;46916;40.564;-7.958;2023-04-25T05:43:07;97529.13;;;14.35;89.51
61035;BME280;46916;40.564;-7.958;2023-04-25T05:45:30;97539.38;;;14.38;89.39
61035;BME280;46916;40.564;-7.958;2023-04-25T05:47:49;97541.31;;;14.36;89.45
61035;BME280;46916;40.564;-7.958;2023-04-25T05:50:10;97531.25;;;14.32;89.03
61035;BME280;46916;40.564;-7.958;2023-04-25T05:52:24;97535.84;;;14.30;89.30
61035;BME280;46916;40.564;-7.958;2023-04-25T05:54:36;97542.78;;;14.31;89.55
61035;BME280;46916;40.564;-7.958;2023-04-25T05:56:36;97545.56;;;14.29;89.67
61035;BME280;46916;40.564;-7.958;2023-04-25T05:58:37;97544.88;;;14.27;89.52
61035;BME280;46916;40.564;-7.958;2023-04-25T06:00:39;97547.38;;;14.29;89.48
61035;BME280;46916;40.564;-7.958;2023-04-25T06:02:42;97544.88;;;14.27;89.55
61035;BME280;46916;40.564;-7.958;2023-04-25T06:04:44;97539.75;;;14.26;89.60
61035;BME280;46916;40.564;-7.958;2023-04-25T06:06:45;97544.75;;;14.29;89.74
61035;BME280;46916;40.564;-7.958;2023-04-25T06:08:46;97532.53;;;14.28;89.18
61035;BME280;46916;40.564;-7.958;2023-04-25T06:10:46;97532.22;;;14.31;88.78
61035;BME280;46916;40.564;-7.958;2023-04-25T06:12:48;97543.06;;;14.28;88.45
61035;BME280;46916;40.564;-7.958;2023-04-25T06:14:51;97543.22;;;14.26;88.85
61035;BME280;46916;40.564;-7.958;2023-04-25T06:16:52;97553.06;;;14.24;88.72
61035;BME280;46916;40.564;-7.958;2023-04-25T06:18:52;97552.09;;;14.25;88.44
61035;BME280;46916;40.564;-7.958;2023-04-25T06:20:53;97540.75;;;14.25;88.41
61035;BME280;46916;40.564;-7.958;2023-04-25T06:22:54;97553.06;;;14.24;88.42
61035;BME280;46916;40.564;-7.958;2023-04-25T06:25:00;97546.97;;;14.24;88.35
61035;BME280;46916;40.564;-7.958;2023-04-25T06:27:03;97548.66;;;14.25;88.49
61035;BME280;46916;40.564;-7.958;2023-04-25T06:29:04;97552.94;;;14.26;88.19
61035;BME280;46916;40.564;-7.958;2023-04-25T06:31:05;97553.75;;;14.26;88.39
61035;BME280;46916;40.564;-7.958;2023-04-25T06:33:05;97560.84;;;14.26;88.21
61035;BME280;46916;40.564;-7.958;2023-04-25T06:35:07;97556.56;;;14.25;88.19
61035;BME280;46916;40.564;-7.958;2023-04-25T06:37:08;97553.75;;;14.26;88.43
61035;BME280;46916;40.564;-7.958;2023-04-25T06:39:09;97561.38;;;14.29;88.23
61035;BME280;46916;40.564;-7.958;2023-04-25T06:41:10;97555.41;;;14.27;88.44
61035;BME280;46916;40.564;-7.958;2023-04-25T06:43:11;97549.47;;;14.25;88.49
61035;BME280;46916;40.564;-7.958;2023-04-25T06:45:38;97558.50;;;14.23;88.53
61035;BME280;46916;40.564;-7.958;2023-04-25T06:47:42;97562.56;;;14.17;88.39
61035;BME280;46916;40.564;-7.958;2023-04-25T06:49:43;97567.28;;;14.13;88.72
61035;BME280;46916;40.564;-7.958;2023-04-25T06:51:44;97567.28;;;14.13;88.95
61035;BME280;46916;40.564;-7.958;2023-04-25T06:53:45;97570.50;;;14.07;89.18
61035;BME280;46916;40.564;-7.958;2023-04-25T06:55:57;97573.13;;;14.07;89.49
61035;BME280;46916;40.564;-7.958;2023-04-25T06:58:02;97565.94;;;14.09;89.32
61035;BME280;46916;40.564;-7.958;2023-04-25T07:00:32;97567.88;;;14.07;89.36
61035;BME280;46916;40.564;-7.958;2023-04-25T07:02:34;97569.22;;;14.11;89.04
61035;BME280;46916;40.564;-7.958;2023-04-25T07:04:35;97575.31;;;14.12;89.09
61035;BME280;46916;40.564;-7.958;2023-04-25T07:06:36;97575.72;;;14.17;88.84
61035;BME280;46916;40.564;-7.958;2023-04-25T07:08:42;97574.22;;;14.15;88.90
61035;BME280;46916;40.564;-7.958;2023-04-25T07:10:43;97582.50;;;14.20;88.80
61035;BME280;46916;40.564;-7.958;2023-04-25T07:12:46;97580.56;;;14.22;88.41
61035;BME280;46916;40.564;-7.958;2023-04-25T07:14:47;97573.09;;;14.17;88.86
61035;BME280;46916;40.564;-7.958;2023-04-25T07:16:48;97584.31;;;14.19;88.79
61035;BME280;46916;40.564;-7.958;2023-04-25T07:18:48;97587.63;;;14.21;88.75
61035;BME280;46916;40.564;-7.958;2023-04-25T07:20:49;97592.06;;;14.21;88.89
61035;BME280;46916;40.564;-7.958;2023-04-25T07:22:50;97586.41;;;14.16;88.73
61035;BME280;46916;40.564;-7.958;2023-04-25T07:24:51;97589.72;;;14.18;88.78
61035;BME280;46916;40.564;-7.958;2023-04-25T07:26:55;97597.63;;;14.18;88.81
61035;BME280;46916;40.564;-7.958;2023-04-25T07:29:15;97595.00;;;14.18;88.79
61035;BME280;46916;40.564;-7.958;2023-04-25T07:31:18;97595.28;;;14.15;88.86
61035;BME280;46916;40.564;-7.958;2023-04-25T07:33:19;97598.91;;;14.13;89.18
61035;BME280;46916;40.564;-7.958;2023-04-25T07:35:21;97599.72;;;14.14;88.95
61035;BME280;46916;40.564;-7.958;2023-04-25T07:37:22;97602.19;;;14.16;88.99
61035;BME280;46916;40.564;-7.958;2023-04-25T07:39:49;97594.84;;;14.19;88.78
61035;BME280;46916;40.564;-7.958;2023-04-25T07:41:50;97595.28;;;14.15;88.77
61035;BME280;46916;40.564;-7.958;2023-04-25T07:43:57;97601.91;;;14.19;88.57
61035;BME280;46916;40.564;-7.958;2023-04-25T07:45:59;97598.47;;;14.18;88.68
61035;BME280;46916;40.564;-7.958;2023-04-25T07:48:02;97600.63;;;14.23;88.59
61035;BME280;46916;40.564;-7.958;2023-04-25T07:50:06;97595.38;;;14.23;88.82
61035;BME280;46916;40.564;-7.958;2023-04-25T07:52:07;97604.63;;;14.27;89.14
61035;BME280;46916;40.564;-7.958;2023-04-25T07:54:13;97612.38;;;14.28;88.91
61035;BME280;46916;40.564;-7.958;2023-04-25T07:56:18;97613.25;;;14.29;88.95
61035;BME280;46916;40.564;-7.958;2023-04-25T07:58:22;97610.59;;;14.29;89.00
61035;BME280;46916;40.564;-7.958;2023-04-25T08:00:25;97609.63;;;14.30;89.21
61035;BME280;46916;40.564;-7.958;2023-04-25T08:02:43;97611.81;;;14.34;89.08
61035;BME280;46916;40.564;-7.958;2023-04-25T08:04:48;97614.28;;;14.36;88.96
61035;BME280;46916;40.564;-7.958;2023-04-25T08:06:51;97609.16;;;14.34;89.05
61035;BME280;46916;40.564;-7.958;2023-04-25T08:08:58;97609.31;;;14.33;89.06
61035;BME280;46916;40.564;-7.958;2023-04-25T08:11:06;97614.44;;;14.34;89.06
61035;BME280;46916;40.564;-7.958;2023-04-25T08:13:07;97614.81;;;14.40;89.05
61035;BME280;46916;40.564;-7.958;2023-04-25T08:15:09;97618.44;;;14.38;89.17
61035;BME280;46916;40.564;-7.958;2023-04-25T08:17:12;97616.47;;;14.41;89.07
61035;BME280;46916;40.564;-7.958;2023-04-25T08:19:15;97607.88;;;14.38;88.82
61035;BME280;46916;40.564;-7.958;2023-04-25T08:21:16;97609.69;;;14.38;89.16
61035;BME280;46916;40.564;-7.958;2023-04-25T08:23:18;97608.19;;;14.35;89.03
61035;BME280;46916;40.564;-7.958;2023-04-25T08:25:36;97609.00;;;14.36;89.30
61035;BME280;46916;40.564;-7.958;2023-04-25T08:27:37;97613.44;;;14.35;89.61
61035;BME280;46916;40.564;-7.958;2023-04-25T08:29:39;97620.81;;;14.32;89.66
61035;BME280;46916;40.564;-7.958;2023-04-25T08:31:40;97625.81;;;14.35;89.84
61035;BME280;46916;40.564;-7.958;2023-04-25T08:33:44;97622.63;;;14.31;90.06
61035;BME280;46916;40.564;-7.958;2023-04-25T08:36:03;97620.81;;;14.32;90.29
61035;BME280;46916;40.564;-7.958;2023-04-25T08:38:06;97625.81;;;14.35;90.17
61035;BME280;46916;40.564;-7.958;2023-04-25T08:40:11;97628.16;;;14.38;89.93
61035;BME280;46916;40.564;-7.958;2023-04-25T08:42:26;97626.03;;;14.42;89.64
61035;BME280;46916;40.564;-7.958;2023-04-25T08:44:28;97629.88;;;14.47;89.50
61035;BME280;46916;40.564;-7.958;2023-04-25T08:46:30;97629.75;;;14.49;89.15
61035;BME280;46916;40.564;-7.958;2023-04-25T08:48:44;97635.25;;;14.55;88.86
61035;BME280;46916;40.564;-7.958;2023-04-25T08:50:51;97629.84;;;14.57;88.21
61035;BME280;46916;40.564;-7.958;2023-04-25T08:52:53;97628.72;;;14.59;87.85
61035;BME280;46916;40.564;-7.958;2023-04-25T08:54:56;97634.34;;;14.65;87.65
61035;BME280;46916;40.564;-7.958;2023-04-25T08:57:01;97626.16;;;14.68;87.48
61035;BME280;46916;40.564;-7.958;2023-04-25T08:59:05;97632.88;;;14.62;87.18
61035;BME280;46916;40.564;-7.958;2023-04-25T09:01:09;97640.91;;;14.60;87.17
61035;BME280;46916;40.564;-7.958;2023-04-25T09:03:18;97637.22;;;14.53;87.35
61035;BME280;46916;40.564;-7.958;2023-04-25T09:05:21;97629.00;;;14.56;87.17
61035;BME280;46916;40.564;-7.958;2023-04-25T09:07:26;97622.78;;;14.57;87.11
61035;BME280;46916;40.564;-7.958;2023-04-25T09:09:29;97630.22;;;14.62;86.76
61035;BME280;46916;40.564;-7.958;2023-04-25T09:11:30;97630.16;;;14.72;86.35
61035;BME280;46916;40.564;-7.958;2023-04-25T09:13:32;97631.50;;;14.76;86.09
61035;BME280;46916;40.564;-7.958;2023-04-25T09:16:01;97626.47;;;14.82;85.98
61035;BME280;46916;40.564;-7.958;2023-04-25T09:18:33;97630.28;;;14.88;86.09
61035;BME280;46916;40.564;-7.958;2023-04-25T09:20:41;97629.25;;;14.99;85.67
61035;BME280;46916;40.564;-7.958;2023-04-25T09:22:45;97636.38;;;15.06;85.31
61035;BME280;46916;40.564;-7.958;2023-04-25T09:24:46;97637.88;;;15.09;85.02
61035;BME280;46916;40.564;-7.958;2023-04-25T09:26:50;97637.41;;;15.14;85.21
61035;BME280;46916;40.564;-7.958;2023-04-25T09:29:05;97641.63;;;15.24;84.81
61035;BME280;46916;40.564;-7.958;2023-04-25T09:31:09;97643.50;;;15.32;84.45
61035;BME280;46916;40.564;-7.958;2023-04-25T09:33:16;97640.91;;;15.40;83.75
61035;BME280;46916;40.564;-7.958;2023-04-25T09:35:25;97642.97;;;15.54;83.41
61035;BME280;46916;40.564;-7.958;2023-04-25T09:37:30;97638.72;;;15.61;83.02
61035;BME280;46916;40.564;-7.958;2023-04-25T09:39:53;97638.03;;;15.77;82.46
61035;BME280;46916;40.564;-7.958;2023-04-25T09:41:55;97636.25;;;15.86;81.93
61035;BME280;46916;40.564;-7.958;2023-04-25T09:43:58;97628.16;;;15.88;81.66
61035;BME280;46916;40.564;-7.958;2023-04-25T09:46:08;97625.06;;;15.92;81.32
61035;BME280;46916;40.564;-7.958;2023-04-25T09:48:20;97628.03;;;15.89;80.76
61035;BME280;46916;40.564;-7.958;2023-04-25T09:50:23;97629.84;;;15.89;80.75
61035;BME280;46916;40.564;-7.958;2023-04-25T09:52:31;97621.22;;;15.87;79.82
61035;BME280;46916;40.564;-7.958;2023-04-25T09:54:44;97630.63;;;15.81;80.34
61035;BME280;46916;40.564;-7.958;2023-04-25T09:56:53;97621.34;;;15.77;80.53
61035;BME280;46916;40.564;-7.958;2023-04-25T09:58:55;97622.41;;;15.84;80.43
61035;BME280;46916;40.564;-7.958;2023-04-25T10:01:00;97614.81;;;15.89;80.53
61035;BME280;46916;40.564;-7.958;2023-04-25T10:03:10;97616.97;;;15.94;80.36
61035;BME280;46916;40.564;-7.958;2023-04-25T10:05:28;97609.88;;;15.94;79.73
61035;BME280;46916;40.564;-7.958;2023-04-25T10:07:31;97608.88;;;15.95;79.68
61035;BME280;46916;40.564;-7.958;2023-04-25T10:09:32;97603.59;;;15.95;79.54
61035;BME280;46916;40.564;-7.958;2023-04-25T10:11:36;97595.34;;;15.90;79.61
61035;BME280;46916;40.564;-7.958;2023-04-25T10:13:39;97593.38;;;15.92;79.33
61035;BME280;46916;40.564;-7.958;2023-04-25T10:15:41;97600.81;;;15.97;79.97
61035;BME280;46916;40.564;-7.958;2023-04-25T10:17:41;97603.81;;;16.02;79.83
61035;BME280;46916;40.564;-7.958;2023-04-25T10:19:43;97600.03;;;16.04;80.05
61035;BME280;46916;40.564;-7.958;2023-04-25T10:21:51;97602.53;;;16.14;79.98
61035;BME280;46916;40.564;-7.958;2023-04-25T10:23:52;97589.81;;;16.18;79.99
61035;BME280;46916;40.564;-7.958;2023-04-25T10:25:54;97589.84;;;16.26;79.59
61035;BME280;46916;40.564;-7.958;2023-04-25T10:27:55;97591.16;;;16.30;79.30
61035;BME280;46916;40.564;-7.958;2023-04-25T10:30:03;97589.19;;;16.32;78.78
61035;BME280;46916;40.564;-7.958;2023-04-25T10:32:05;97580.75;;;16.37;78.28
61035;BME280;46916;40.564;-7.958;2023-04-25T10:34:05;97575.66;;;16.35;77.65
61035;BME280;46916;40.564;-7.958;2023-04-25T10:36:10;97575.00;;;16.41;77.69
61035;BME280;46916;40.564;-7.958;2023-04-25T10:38:13;97585.91;;;16.46;78.09
61035;BME280;46916;40.564;-7.958;2023-04-25T10:40:21;97580.97;;;16.51;77.76
61035;BME280;46916;40.564;-7.958;2023-04-25T10:42:23;97579.31;;;16.58;77.56
61035;BME280;46916;40.564;-7.958;2023-04-25T10:44:28;97578.66;;;16.65;77.48
61035;BME280;46916;40.564;-7.958;2023-04-25T10:46:29;97572.88;;;16.69;77.19
61035;BME280;46916;40.564;-7.958;2023-04-25T10:48:34;97576.72;;;16.75;77.02
61035;BME280;46916;40.564;-7.958;2023-04-25T10:50:38;97571.75;;;16.80;76.79
61035;BME280;46916;40.564;-7.958;2023-04-25T10:52:40;97575.91;;;16.82;76.80
61035;BME280;46916;40.564;-7.958;2023-04-25T10:55:02;97569.94;;;16.89;76.59